Playa, California
Current Conditions -  °F | °C
As of 9:53 AM on Friday 31 Oct 2014 (Local Time) from KSNA Reporting Station
Broken Clouds Broken Clouds  
Wind Chill: 70°   Ceiling: 4200
Heat Index: 70°   Visibility: 10mi
Dew Point: 57°   Wind: 0mph
Humidity: 63%   Direction: NA
Pressure: 29.97"   Gusts: NA
Location:  33.5434°N, 117.781°W
Report Text: KSNA 311653Z 00000KT 10SM FEW030 BKN042 21/14 A2997 RMK AO2 SLP148 T02110139 $
Loading
Personal Weather Stations






























Interactive Weather Map
Tropical Storm Tracking
New forecast layout! Learn more

10-Day Weather Forecast

Advertisements
Track Severe Weather on mobile